Ledbetter, KY (42058)

11:39 PM CDT on August 29, 2014 (GMT -0500)
Sharpe, KY | Change Station
CLOSE
Current Station
Personal Weather Station
Location: Calvert City, KY
Elevation: 410 ft
Nearby Weather Stations

Elev 410 ft 36.98 °N, 88.48 °W | Updated 6 seconds ago

Mostly Cloudy
Mostly Cloudy
76.7 °F
Feels Like 78 °F
N
4.0
Wind Variable Wind from WNW
Gusts 10.0 mph

Today
High -- | Low -- °F
--% Chance of Precip.
Yesterday
High -- | Low -- °F
Precip. -- in
6:22 AM 7:26 PM
Waxing Crescent, 19% visible
Pressure 30.00 in
Visibility 10.0 miles
Clouds Few 5000 ft
Scattered Clouds 9000 ft
Overcast 11000 ft
Heat Index 78 °F
Dew Point 69 °F
Humidity 78%
Rainfall 0.00 in
Snow Depth Not available.
UV 0 out of 12
Pollen 10.60 out of 12
Air Quality Not available.
Flu Activity Not available.
SPECI KPAH 300405Z AUTO 26015G26KT 10SM FEW050 SCT090 OVC110 26/20 A3000

More Conditions Fewer Conditions

Pressure 30.00 in
Visibility 10.0 miles
Clouds Few 5000 ft
Scattered Clouds 9000 ft
Overcast 11000 ft
Heat Index 78 °F
Dew Point 69 °F
Humidity 78%
Rainfall 0.00 in
Snow Depth Not available.
UV 0 out of 12
Pollen 10.60 out of 12
Air Quality Not available.
Flu Activity Not available.
SPECI KPAH 300405Z AUTO 26015G26KT 10SM FEW050 SCT090 OVC110 26/20 A3000

More Conditions Fewer Conditions

10-Day Weather Forecast

Almanac

Astronomy

Aug. 29, 2014 Rise Set
Actual Time 6:22 AM CDT 7:26 PM CDT
Civil Twilight 5:55 AM CDT 7:53 PM CDT
Nautical Twilight 5:23 AM CDT 8:25 PM CDT
Astronomical Twilight 4:50 AM CDT 8:58 PM CDT
Moon 10:05 AM CDT (8/29) 9:31 PM CDT (8/29)
Length of Visible Light 13h 57m
Length of Day
13h 04m
Tomorrow will be 2m 15s shorter.
Waxing Crescent, 19% of the Moon is Illuminated
Aug 30
Waxing Crescent
Sep 2
First Quarter
Sep 8
Full
Sep 15
Last Quarter
Sep 24
New

Today's Extremes

State Highs State Lows

Community

WunderPhotos

Upload Photos

1,748,452 photos uploaded!

Nearby

Snow Depth

Station Depth Elevation
No new snow has been reported.

Earthquake Activity

City Distance Mag. Time & Date
No recent earthquake activity has been reported nearby.
Minimum magnitude displayed is 2.5.

Coastal Water Temperatures

Place Temperature
No Stations Reporting

Nearby Weather Stations